Airfield :
LOGIN :

Register | Disclaimer

   EN    FR    IT 

 










Legend :    VFR   Marginal VFR   IFR   Intensive IFR   Very Intensive IFR
Visi :
Ceiling :
>= 8 km
>= 3000ft
5 to 8 km
1000 to 3000 ft
1500m to 5 km
500 to 1000 ft
800 to 1500m
200 to 500 ft
< 800m
< 200 ft
Symbols :   Thunderstorms  Fog  Heavy snow  Heavy precipitations  Wind > 20 kt
SIGMETs :     Misc.  Thunderstorms  Icing  Turbulence  Mountain Waves  Volcanic Ashes






- Airport Elevation : -11 ft
- IATA code : AMS


EHAM - Amsterdam Schiphol

CURRENT METAR :
  • 150425Z 33003KT CAVOK 01/01 Q1030 NOSIG

EXPIRED METARs :
  • 150355Z 32003KT CAVOK 02/01 Q1030 NOSIG
  • 150325Z 31004KT 9999 FEW043 02/01 Q1030 NOSIG
  • 150255Z 30004KT 9999 FEW035 SCT040 02/01 Q1030 NOSIG
  • 150225Z 30006KT 9999 FEW025 BKN040 02/01 Q1030 NOSIG
  • 150155Z 34005KT 9999 VCSH FEW020CB SCT032 01/M00 Q1031 TEMPO -SHRA

TAF TAF EHAM
Valid from the 15 at 00:00 until the 16 at 06:00 UTC


142257Z 1500/1606 01003KT 9999 SCT025
PROB30
TEMPO 1500/1503 6000 -SHRA SCT012 FEW020CB
PROB30 1502/1506 7000 MIFG
BECMG 1507/1510 04008KT



MET'MAP, your aeronautical weather chart ! - Copyright ORBIFLY December 2007 - Disclaimer

ORBIFLY MET'MAP TEAM :

Programming & Development : Alexandra Zaïnal
Concept & original design : Baudouin d'Aumeries
Assistance for programming : Marc-Olivier Méhu
Technical & hardware support : Manuel Goepfert

Contact : metmap@orbifly.com




SOURCES & CREDITS :

   NOAA